Time;durP1;ratioP1;P1;durP2;ratioP2;P2;SDS_P1;SDS_P2;PMS_P1;PMS_P2;Temp;Humidity;BMP_temperature;BMP_pressure;BME280_temperature;BME280_humidity;BME280_pressure;Samples;Min_cycle;Max_cycle;Signal;HPM_P1;HPM_P2
2023/07/15 00:01:07;;;;;;;2.87;1.30;;;;;;;;;;5026868;27;88262;-55
2023/07/15 00:03:36;;;;;;;1.07;0.97;;;;;;;;;;5031931;27;88814;-55
2023/07/15 00:06:07;;;;;;;1.13;1.00;;;;;;;;;;5041264;27;87754;-55
2023/07/15 00:08:36;;;;;;;1.23;1.03;;;;;;;;;;5037450;27;90023;-58
2023/07/15 00:11:05;;;;;;;1.77;1.40;;;;;;;;;;5035468;27;90041;-55
2023/07/15 00:13:33;;;;;;;2.37;1.40;;;;;;;;;;5030267;27;87751;-55
2023/07/15 00:16:02;;;;;;;2.10;1.10;;;;;;;;;;5040453;27;87661;-55
2023/07/15 00:18:31;;;;;;;1.80;1.30;;;;;;;;;;5032283;27;88495;-55
2023/07/15 00:20:59;;;;;;;3.57;1.37;;;;;;;;;;5041389;27;89726;-55
2023/07/15 00:23:29;;;;;;;2.07;1.30;;;;;;;;;;5056634;27;87561;-55
2023/07/15 00:25:57;;;;;;;3.57;1.70;;;;;;;;;;5042095;27;87587;-55
2023/07/15 00:28:26;;;;;;;2.80;1.60;;;;;;;;;;5039400;27;89884;-55
2023/07/15 00:30:55;;;;;;;3.13;1.50;;;;;;;;;;5038390;27;90448;-55
2023/07/15 00:33:24;;;;;;;1.93;1.43;;;;;;;;;;5037710;27;89880;-54
2023/07/15 00:35:53;;;;;;;2.87;1.70;;;;;;;;;;5021717;27;87661;-55
2023/07/15 00:38:21;;;;;;;3.10;1.60;;;;;;;;;;5021777;27;87482;-55
2023/07/15 00:40:51;;;;;;;2.03;1.60;;;;;;;;;;5026165;27;88055;-55
2023/07/15 00:43:38;;;;;;;1.43;1.33;;;;;;;;;;5035835;27;89053;-54
2023/07/15 00:46:26;;;;;;;3.00;1.70;;;;;;;;;;5034510;27;87400;-55
2023/07/15 00:48:56;;;;;;;2.10;1.60;;;;;;;;;;5021051;27;88850;-55
2023/07/15 00:51:24;;;;;;;4.93;2.13;;;;;;;;;;5039978;27;88088;-55
2023/07/15 00:53:53;;;;;;;2.53;1.50;;;;;;;;;;5033025;27;89139;-55
2023/07/15 00:56:22;;;;;;;2.40;1.87;;;;;;;;;;5041007;27;87994;-55
2023/07/15 00:58:50;;;;;;;3.27;1.93;;;;;;;;;;5040391;27;88739;-55
2023/07/15 01:01:19;;;;;;;1.87;1.67;;;;;;;;;;5039700;27;88988;-55
2023/07/15 01:03:47;;;;;;;2.47;1.93;;;;;;;;;;5038897;27;88849;-55
2023/07/15 01:06:17;;;;;;;2.40;2.10;;;;;;;;;;5034585;27;87606;-55
2023/07/15 01:08:45;;;;;;;2.30;1.70;;;;;;;;;;5035198;27;88536;-55
2023/07/15 01:11:13;;;;;;;1.87;1.60;;;;;;;;;;5031502;27;87576;-56
2023/07/15 01:13:42;;;;;;;2.77;1.97;;;;;;;;;;5036200;28;87809;-55
2023/07/15 01:16:10;;;;;;;2.87;2.23;;;;;;;;;;5040968;27;87633;-54
2023/07/15 01:18:39;;;;;;;1.90;1.70;;;;;;;;;;5039703;27;88662;-55
2023/07/15 01:21:08;;;;;;;4.27;2.20;;;;;;;;;;5040323;27;89090;-54
2023/07/15 01:23:38;;;;;;;2.70;2.13;;;;;;;;;;5036070;27;89607;-55
2023/07/15 01:26:06;;;;;;;3.77;1.93;;;;;;;;;;5020907;28;87930;-54
2023/07/15 01:28:36;;;;;;;2.63;1.67;;;;;;;;;;5024480;28;88901;-54
2023/07/15 01:31:04;;;;;;;5.23;1.80;;;;;;;;;;5040771;28;87903;-55
2023/07/15 01:33:33;;;;;;;3.43;1.80;;;;;;;;;;5040606;27;88404;-55
2023/07/15 01:36:02;;;;;;;2.43;1.87;;;;;;;;;;5040685;27;87723;-55
2023/07/15 01:38:31;;;;;;;2.90;1.50;;;;;;;;;;5040799;27;89192;-54
2023/07/15 01:41:01;;;;;;;2.63;1.80;;;;;;;;;;5032479;28;89103;-54
2023/07/15 01:43:29;;;;;;;2.73;1.90;;;;;;;;;;5031934;27;88850;-54
2023/07/15 01:45:58;;;;;;;2.30;1.47;;;;;;;;;;5023058;27;87937;-53
2023/07/15 01:48:26;;;;;;;2.00;1.50;;;;;;;;;;5028569;27;88290;-55
2023/07/15 01:50:54;;;;;;;1.33;1.23;;;;;;;;;;5039011;28;89051;-55
2023/07/15 01:53:23;;;;;;;1.73;1.60;;;;;;;;;;5040336;27;87824;-54
2023/07/15 01:55:51;;;;;;;1.53;1.43;;;;;;;;;;5040423;27;87605;-55
2023/07/15 01:58:21;;;;;;;1.93;1.20;;;;;;;;;;5040322;27;88599;-55
2023/07/15 02:00:49;;;;;;;1.57;1.30;;;;;;;;;;5043078;27;89279;-55
2023/07/15 02:03:18;;;;;;;1.77;1.53;;;;;;;;;;5049416;27;88794;-55
2023/07/15 02:05:48;;;;;;;1.93;1.23;;;;;;;;;;5040256;27;87680;-55
2023/07/15 02:08:16;;;;;;;1.20;1.10;;;;;;;;;;5039539;27;87871;-55
2023/07/15 02:10:45;;;;;;;1.40;1.00;;;;;;;;;;5039311;27;90309;-54
2023/07/15 02:13:13;;;;;;;1.50;1.40;;;;;;;;;;5040114;27;89813;-56
2023/07/15 02:15:43;;;;;;;2.00;1.40;;;;;;;;;;5039986;27;87532;-55
2023/07/15 02:18:11;;;;;;;2.17;1.03;;;;;;;;;;5042540;27;89501;-55
2023/07/15 02:20:39;;;;;;;1.20;1.10;;;;;;;;;;5060646;27;89098;-55
2023/07/15 02:23:09;;;;;;;1.07;1.00;;;;;;;;;;5047713;27;88571;-55
2023/07/15 02:25:37;;;;;;;3.67;1.27;;;;;;;;;;5051277;27;87709;-55
2023/07/15 02:28:05;;;;;;;1.10;1.00;;;;;;;;;;5040165;27;88586;-54
2023/07/15 02:30:34;;;;;;;1.57;1.23;;;;;;;;;;5043001;27;89194;-55
2023/07/15 02:33:06;;;;;;;2.93;1.27;;;;;;;;;;5043529;27;88917;-54
2023/07/15 02:35:35;;;;;;;1.20;1.10;;;;;;;;;;5044209;27;88407;-55
2023/07/15 02:38:03;;;;;;;1.10;1.00;;;;;;;;;;5049999;27;89480;-55
2023/07/15 02:40:31;;;;;;;1.07;0.93;;;;;;;;;;5063339;27;89383;-55
2023/07/15 02:43:00;;;;;;;1.80;1.07;;;;;;;;;;5063116;27;87679;-54
2023/07/15 02:45:28;;;;;;;1.10;1.00;;;;;;;;;;5050767;27;87759;-55
2023/07/15 02:47:57;;;;;;;1.03;0.90;;;;;;;;;;5043169;27;89678;-54
2023/07/15 02:50:27;;;;;;;1.20;1.10;;;;;;;;;;5042541;27;87892;-55
2023/07/15 02:52:55;;;;;;;1.90;1.20;;;;;;;;;;5058536;27;87561;-54
2023/07/15 02:55:25;;;;;;;1.93;1.60;;;;;;;;;;5043860;27;87451;-54
2023/07/15 02:57:53;;;;;;;2.17;1.27;;;;;;;;;;5043108;27;88602;-55
2023/07/15 03:00:22;;;;;;;1.43;1.20;;;;;;;;;;5042370;27;90100;-55
2023/07/15 03:02:51;;;;;;;1.47;1.23;;;;;;;;;;5042891;27;88765;-55
2023/07/15 03:05:20;;;;;;;2.40;1.10;;;;;;;;;;5044360;27;87618;-55
2023/07/15 03:07:50;;;;;;;2.10;0.90;;;;;;;;;;5028000;27;89567;-55
2023/07/15 03:10:19;;;;;;;1.10;1.00;;;;;;;;;;5050953;27;88367;-55
2023/07/15 03:12:48;;;;;;;1.10;0.80;;;;;;;;;;5022890;28;87881;-55
2023/07/15 03:15:17;;;;;;;1.50;1.40;;;;;;;;;;5040262;27;87348;-55
2023/07/15 03:17:46;;;;;;;1.07;0.97;;;;;;;;;;5043803;27;88443;-55
2023/07/15 03:20:19;;;;;;;1.07;1.00;;;;;;;;;;5042601;27;89114;-55
2023/07/15 03:22:49;;;;;;;1.23;1.00;;;;;;;;;;5042478;27;87664;-55
2023/07/15 03:25:19;;;;;;;0.77;0.77;;;;;;;;;;5061566;27;87956;-55
2023/07/15 03:27:48;;;;;;;1.47;0.87;;;;;;;;;;5061076;27;89633;-55
2023/07/15 03:30:16;;;;;;;1.47;1.33;;;;;;;;;;5063159;27;88670;-55
2023/07/15 03:32:45;;;;;;;1.20;1.10;;;;;;;;;;5063098;27;88970;-54
2023/07/15 03:35:14;;;;;;;1.67;1.57;;;;;;;;;;5062661;27;88103;-55
2023/07/15 03:37:43;;;;;;;1.70;1.40;;;;;;;;;;5060807;27;88706;-55
2023/07/15 03:40:13;;;;;;;1.20;1.10;;;;;;;;;;5062051;27;88762;-55
2023/07/15 03:42:42;;;;;;;1.83;1.50;;;;;;;;;;5062442;27;87318;-55
2023/07/15 03:45:11;;;;;;;1.97;1.50;;;;;;;;;;5062779;27;88106;-55
2023/07/15 03:47:39;;;;;;;2.67;1.50;;;;;;;;;;5061012;27;88676;-55
2023/07/15 03:50:09;;;;;;;2.60;1.60;;;;;;;;;;5061763;27;89029;-54
2023/07/15 03:52:37;;;;;;;5.67;1.77;;;;;;;;;;5060466;27;89835;-54
2023/07/15 03:55:06;;;;;;;3.23;1.97;;;;;;;;;;5053706;27;87615;-55
2023/07/15 03:57:36;;;;;;;2.60;2.10;;;;;;;;;;5021975;28;89737;-55
2023/07/15 04:00:13;;;;;;;1.47;1.33;;;;;;;;;;5060238;27;89191;-55
2023/07/15 04:02:44;;;;;;;1.60;1.50;;;;;;;;;;5062482;27;89089;-55
2023/07/15 04:05:13;;;;;;;1.40;1.30;;;;;;;;;;5062497;27;87538;-55
2023/07/15 04:07:42;;;;;;;2.63;1.73;;;;;;;;;;5060890;27;89797;-55
2023/07/15 04:10:11;;;;;;;2.50;2.17;;;;;;;;;;5062316;27;87256;-55
2023/07/15 04:12:41;;;;;;;2.70;1.50;;;;;;;;;;5062211;27;87864;-55
2023/07/15 04:15:09;;;;;;;3.17;2.03;;;;;;;;;;5051734;27;88005;-54
2023/07/15 04:17:38;;;;;;;2.37;1.90;;;;;;;;;;5041947;27;88773;-55
2023/07/15 04:20:13;;;;;;;3.53;2.57;;;;;;;;;;5042924;27;88218;-55
2023/07/15 04:22:42;;;;;;;2.67;1.93;;;;;;;;;;5041453;27;88086;-55
2023/07/15 04:25:12;;;;;;;3.93;2.73;;;;;;;;;;5054937;27;88872;-54
2023/07/15 04:27:42;;;;;;;3.37;2.40;;;;;;;;;;5041691;27;89614;-55
2023/07/15 04:30:10;;;;;;;4.23;2.40;;;;;;;;;;5042458;27;89562;-55
2023/07/15 04:32:39;;;;;;;3.33;2.40;;;;;;;;;;5041795;28;88989;-54
2023/07/15 04:35:07;;;;;;;6.70;2.77;;;;;;;;;;5041423;27;87790;-54
2023/07/15 04:37:37;;;;;;;2.90;2.60;;;;;;;;;;5041326;27;88472;-55
2023/07/15 04:40:07;;;;;;;4.07;2.83;;;;;;;;;;5058690;27;88937;-55
2023/07/15 04:42:35;;;;;;;3.73;2.90;;;;;;;;;;5061321;27;89759;-55
2023/07/15 04:45:06;;;;;;;4.17;2.70;;;;;;;;;;5052775;27;87516;-55
2023/07/15 04:47:35;;;;;;;4.20;2.47;;;;;;;;;;5041430;27;89813;-55
2023/07/15 04:50:04;;;;;;;3.40;2.30;;;;;;;;;;5041177;27;89527;-55
2023/07/15 04:52:33;;;;;;;3.60;2.67;;;;;;;;;;5041089;27;87714;-55
2023/07/15 04:55:02;;;;;;;3.30;2.23;;;;;;;;;;5051801;27;88530;-55
2023/07/15 04:57:30;;;;;;;2.83;2.30;;;;;;;;;;5048698;27;89907;-54
2023/07/15 04:59:59;;;;;;;2.90;1.93;;;;;;;;;;5061414;27;89206;-55
2023/07/15 05:02:33;;;;;;;3.83;2.20;;;;;;;;;;5061294;27;87756;-55
2023/07/15 05:05:01;;;;;;;3.13;2.47;;;;;;;;;;5061391;27;87831;-54
2023/07/15 05:07:30;;;;;;;2.40;2.20;;;;;;;;;;5058881;27;89826;-54
2023/07/15 05:10:14;;;;;;;4.27;2.50;;;;;;;;;;5042070;28;87944;-54
2023/07/15 05:12:43;;;;;;;3.20;2.50;;;;;;;;;;5040929;28;88962;-55
2023/07/15 05:15:11;;;;;;;7.37;2.50;;;;;;;;;;5040854;28;87652;-55
2023/07/15 05:17:42;;;;;;;2.40;2.00;;;;;;;;;;5041586;27;87965;-55
2023/07/15 05:20:13;;;;;;;3.00;2.50;;;;;;;;;;5038256;27;88094;-54
2023/07/15 05:22:42;;;;;;;3.53;2.33;;;;;;;;;;5043525;27;88842;-55
2023/07/15 05:25:12;;;;;;;3.03;1.87;;;;;;;;;;5061611;27;87595;-55
2023/07/15 05:27:42;;;;;;;3.80;2.03;;;;;;;;;;5060968;27;88539;-55
2023/07/15 05:30:11;;;;;;;2.33;2.07;;;;;;;;;;5040993;27;89168;-55
2023/07/15 05:32:40;;;;;;;2.63;2.10;;;;;;;;;;5040733;27;88666;-55
2023/07/15 05:35:09;;;;;;;2.87;2.00;;;;;;;;;;5040519;27;87603;-55
2023/07/15 05:37:37;;;;;;;2.00;1.50;;;;;;;;;;5050761;27;89650;-55
2023/07/15 05:40:09;;;;;;;4.00;1.50;;;;;;;;;;5058982;27;89171;-55
2023/07/15 05:42:38;;;;;;;2.73;1.60;;;;;;;;;;5060886;27;89158;-55
2023/07/15 05:45:07;;;;;;;3.07;2.10;;;;;;;;;;5061183;27;87608;-55
2023/07/15 05:47:35;;;;;;;3.77;2.10;;;;;;;;;;5060934;27;88702;-55
2023/07/15 05:50:06;;;;;;;3.17;1.60;;;;;;;;;;5047630;27;88021;-55
2023/07/15 05:52:35;;;;;;;2.50;1.97;;;;;;;;;;5047728;27;88780;-55
2023/07/15 05:55:04;;;;;;;2.43;2.20;;;;;;;;;;5060483;27;87887;-55
2023/07/15 05:57:33;;;;;;;2.87;1.67;;;;;;;;;;5060819;27;89690;-55
2023/07/15 06:00:01;;;;;;;2.40;1.90;;;;;;;;;;5048360;27;89395;-55
2023/07/15 06:02:29;;;;;;;2.97;1.73;;;;;;;;;;5042638;27;88909;-55
2023/07/15 06:04:58;;;;;;;2.50;1.70;;;;;;;;;;5042691;27;87609;-56
2023/07/15 06:07:28;;;;;;;1.97;1.80;;;;;;;;;;5046834;27;88794;-53
2023/07/15 06:09:56;;;;;;;4.50;1.90;;;;;;;;;;5051610;27;88096;-55
2023/07/15 06:12:25;;;;;;;4.07;2.00;;;;;;;;;;5064036;27;87695;-54
2023/07/15 06:14:53;;;;;;;2.27;1.20;;;;;;;;;;5064484;27;87698;-55
2023/07/15 06:17:22;;;;;;;2.10;1.17;;;;;;;;;;5060034;27;87527;-57
2023/07/15 06:19:51;;;;;;;2.03;1.37;;;;;;;;;;5044106;27;89846;-57
2023/07/15 06:22:19;;;;;;;2.47;0.80;;;;;;;;;;5046506;27;89866;-55
2023/07/15 06:24:49;;;;;;;0.77;0.77;;;;;;;;;;5064416;27;87527;-54
2023/07/15 06:27:17;;;;;;;0.60;0.60;;;;;;;;;;5064100;27;88661;-53
2023/07/15 06:29:47;;;;;;;1.40;0.83;;;;;;;;;;5064049;27;88074;-53
2023/07/15 06:32:15;;;;;;;2.63;1.20;;;;;;;;;;5040491;27;87737;-55
2023/07/15 06:34:44;;;;;;;1.67;0.73;;;;;;;;;;5044045;27;87623;-54
2023/07/15 06:37:12;;;;;;;2.10;0.93;;;;;;;;;;5051821;27;88595;-53
2023/07/15 06:39:40;;;;;;;0.63;0.63;;;;;;;;;;5043481;27;89125;-53
2023/07/15 06:42:10;;;;;;;0.87;0.50;;;;;;;;;;5043112;27;88830;-55
2023/07/15 06:44:38;;;;;;;1.23;0.60;;;;;;;;;;5042658;27;89113;-55
2023/07/15 06:47:11;;;;;;;2.07;0.50;;;;;;;;;;5044272;27;88519;-58
2023/07/15 06:49:39;;;;;;;0.40;0.40;;;;;;;;;;5043071;27;87913;-57
2023/07/15 06:52:08;;;;;;;0.50;0.50;;;;;;;;;;5049434;27;87952;-54
2023/07/15 06:54:36;;;;;;;0.83;0.70;;;;;;;;;;5050542;27;87636;-54
2023/07/15 06:57:05;;;;;;;0.40;0.40;;;;;;;;;;5050937;27;88708;-57
2023/07/15 06:59:35;;;;;;;0.40;0.40;;;;;;;;;;5049528;27;88033;-54
2023/07/15 07:02:03;;;;;;;0.37;0.37;;;;;;;;;;5043698;27;88091;-55
2023/07/15 07:04:32;;;;;;;0.47;0.47;;;;;;;;;;5047069;27;87683;-56
2023/07/15 07:07:00;;;;;;;0.50;0.40;;;;;;;;;;5061546;27;89827;-55
2023/07/15 07:09:28;;;;;;;0.23;0.23;;;;;;;;;;5040503;27;89983;-54
2023/07/15 07:11:57;;;;;;;0.40;0.40;;;;;;;;;;5027175;27;88713;-55
2023/07/15 07:14:25;;;;;;;0.77;0.30;;;;;;;;;;5043070;27;87675;-55
2023/07/15 07:16:55;;;;;;;0.30;0.23;;;;;;;;;;5042803;27;88666;-55
2023/07/15 07:19:23;;;;;;;0.50;0.30;;;;;;;;;;5044095;27;89389;-55
2023/07/15 07:21:51;;;;;;;5.73;0.60;;;;;;;;;;5042906;27;87338;-56
2023/07/15 07:24:20;;;;;;;0.30;0.30;;;;;;;;;;5045969;27;87496;-55
2023/07/15 07:26:49;;;;;;;1.87;0.60;;;;;;;;;;5042797;28;89869;-55
2023/07/15 07:29:17;;;;;;;3.63;0.43;;;;;;;;;;5042892;27;88101;-55
2023/07/15 07:31:45;;;;;;;0.40;0.33;;;;;;;;;;5042487;27;88847;-55
2023/07/15 07:34:15;;;;;;;1.40;0.40;;;;;;;;;;5042420;27;87898;-55
2023/07/15 07:36:43;;;;;;;0.87;0.43;;;;;;;;;;5041987;27;88647;-56
2023/07/15 07:39:12;;;;;;;1.63;0.70;;;;;;;;;;5042556;27;88109;-56
2023/07/15 07:41:41;;;;;;;0.47;0.47;;;;;;;;;;5040046;27;88791;-55
2023/07/15 07:44:09;;;;;;;0.40;0.33;;;;;;;;;;5039928;28;87737;-55
2023/07/15 07:46:38;;;;;;;0.60;0.50;;;;;;;;;;5042045;28;89744;-55
2023/07/15 07:49:06;;;;;;;0.53;0.47;;;;;;;;;;5028060;27;89022;-55
2023/07/15 07:51:36;;;;;;;0.43;0.40;;;;;;;;;;5043317;27;87508;-55
2023/07/15 07:54:04;;;;;;;1.03;0.40;;;;;;;;;;5060058;27;88101;-55
2023/07/15 07:56:33;;;;;;;0.40;0.40;;;;;;;;;;5059505;27;89357;-55
2023/07/15 07:59:01;;;;;;;0.97;0.43;;;;;;;;;;5058712;27;90312;-55
2023/07/15 08:01:30;;;;;;;0.43;0.40;;;;;;;;;;5047601;27;89882;-55
2023/07/15 08:03:59;;;;;;;0.33;0.30;;;;;;;;;;5039208;27;87622;-56
2023/07/15 08:06:28;;;;;;;0.30;0.30;;;;;;;;;;5039305;27;88991;-55
2023/07/15 08:08:57;;;;;;;0.60;0.30;;;;;;;;;;5039254;27;89388;-56
2023/07/15 08:11:26;;;;;;;1.23;0.57;;;;;;;;;;5038951;27;91009;-54
2023/07/15 08:13:54;;;;;;;2.20;0.67;;;;;;;;;;5039001;27;87663;-55
2023/07/15 08:16:30;;;;;;;1.00;0.50;;;;;;;;;;5039052;27;87440;-55
2023/07/15 08:18:58;;;;;;;1.37;0.70;;;;;;;;;;5046953;27;89617;-54
2023/07/15 08:21:27;;;;;;;1.50;0.83;;;;;;;;;;5059246;27;87937;-55
2023/07/15 08:23:56;;;;;;;0.90;0.77;;;;;;;;;;5058460;27;88329;-55
2023/07/15 08:26:25;;;;;;;0.50;0.33;;;;;;;;;;5058526;27;88791;-55
2023/07/15 08:28:55;;;;;;;0.30;0.30;;;;;;;;;;5056279;27;87508;-55
2023/07/15 08:31:23;;;;;;;0.30;0.30;;;;;;;;;;5038727;27;87983;-56
2023/07/15 08:33:52;;;;;;;0.57;0.43;;;;;;;;;;5038957;27;87628;-55
2023/07/15 08:36:22;;;;;;;0.77;0.33;;;;;;;;;;5038463;27;88236;-55
2023/07/15 08:38:50;;;;;;;0.53;0.23;;;;;;;;;;5038798;27;89311;-55
2023/07/15 08:41:19;;;;;;;0.80;0.60;;;;;;;;;;5038722;27;87658;-55
2023/07/15 08:43:49;;;;;;;1.17;0.40;;;;;;;;;;5038506;27;87540;-56
2023/07/15 08:46:22;;;;;;;1.07;0.43;;;;;;;;;;5038807;27;88536;-54
2023/07/15 08:48:50;;;;;;;0.50;0.50;;;;;;;;;;5037988;27;90103;-55
2023/07/15 08:51:19;;;;;;;1.07;0.50;;;;;;;;;;5048965;27;88679;-55
2023/07/15 08:53:47;;;;;;;0.57;0.40;;;;;;;;;;5058969;27;87528;-55
2023/07/15 08:56:16;;;;;;;0.50;0.50;;;;;;;;;;5058741;27;89602;-55
2023/07/15 08:58:46;;;;;;;0.40;0.40;;;;;;;;;;5058690;27;87877;-55
2023/07/15 09:01:16;;;;;;;0.60;0.50;;;;;;;;;;5053525;27;88027;-56
2023/07/15 09:03:45;;;;;;;0.30;0.30;;;;;;;;;;5038625;27;87432;-55
2023/07/15 09:06:13;;;;;;;0.50;0.50;;;;;;;;;;5037971;27;88513;-55
2023/07/15 09:08:42;;;;;;;0.57;0.53;;;;;;;;;;5038148;27;88075;-55
2023/07/15 09:11:12;;;;;;;1.13;0.50;;;;;;;;;;5037795;27;88889;-56
2023/07/15 09:13:41;;;;;;;0.20;0.20;;;;;;;;;;5037619;27;89243;-55
2023/07/15 09:16:12;;;;;;;0.50;0.47;;;;;;;;;;5038088;27;89775;-55
2023/07/15 09:18:42;;;;;;;0.53;0.30;;;;;;;;;;5037667;27;89269;-56
2023/07/15 09:21:11;;;;;;;0.60;0.40;;;;;;;;;;5038014;27;88661;-56
2023/07/15 09:23:40;;;;;;;1.53;0.67;;;;;;;;;;5037814;27;87823;-54
2023/07/15 09:26:09;;;;;;;0.67;0.40;;;;;;;;;;5037704;27;88315;-54
2023/07/15 09:28:38;;;;;;;0.50;0.40;;;;;;;;;;5037921;27;87943;-55
2023/07/15 09:31:06;;;;;;;0.50;0.30;;;;;;;;;;5038064;27;88083;-54
2023/07/15 09:33:35;;;;;;;0.63;0.40;;;;;;;;;;5038004;27;87669;-55
2023/07/15 09:36:05;;;;;;;0.40;0.40;;;;;;;;;;5036202;28;89648;-55
2023/07/15 09:38:33;;;;;;;0.63;0.40;;;;;;;;;;5037323;27;88820;-55
2023/07/15 09:41:02;;;;;;;2.60;0.63;;;;;;;;;;5040888;27;89145;-55
2023/07/15 09:43:46;;;;;;;0.60;0.40;;;;;;;;;;5041177;28;87559;-55
2023/07/15 09:46:16;;;;;;;1.03;0.70;;;;;;;;;;5041259;27;88498;-56
2023/07/15 09:48:45;;;;;;;0.60;0.40;;;;;;;;;;5040926;27;88155;-55
2023/07/15 09:51:15;;;;;;;2.80;0.60;;;;;;;;;;5040891;27;88071;-55
2023/07/15 09:53:48;;;;;;;0.50;0.47;;;;;;;;;;5041783;27;88219;-55
2023/07/15 09:56:17;;;;;;;1.47;0.50;;;;;;;;;;5041036;27;88470;-56
2023/07/15 09:58:47;;;;;;;0.37;0.30;;;;;;;;;;5040918;27;88473;-55
2023/07/15 10:01:16;;;;;;;0.63;0.60;;;;;;;;;;5041013;27;87986;-55
2023/07/15 10:03:51;;;;;;;0.27;0.27;;;;;;;;;;5040528;27;88380;-55
2023/07/15 10:06:21;;;;;;;0.60;0.40;;;;;;;;;;5041056;27;89749;-55
2023/07/15 10:08:49;;;;;;;1.17;0.37;;;;;;;;;;5040180;27;88437;-55
2023/07/15 10:11:17;;;;;;;0.80;0.37;;;;;;;;;;5040820;27;89029;-55
2023/07/15 10:13:46;;;;;;;1.13;0.50;;;;;;;;;;5040965;27;87657;-55
2023/07/15 10:16:14;;;;;;;0.37;0.37;;;;;;;;;;5040897;27;88700;-55
2023/07/15 10:18:42;;;;;;;0.30;0.30;;;;;;;;;;5041270;27;89186;-54
2023/07/15 10:21:11;;;;;;;0.50;0.43;;;;;;;;;;5049300;27;89050;-55
2023/07/15 10:23:41;;;;;;;0.67;0.30;;;;;;;;;;5040402;27;87731;-56
2023/07/15 10:26:10;;;;;;;0.63;0.40;;;;;;;;;;5040631;27;88828;-55
2023/07/15 10:28:40;;;;;;;0.33;0.33;;;;;;;;;;5039885;27;89968;-56
2023/07/15 10:31:09;;;;;;;0.40;0.40;;;;;;;;;;5040579;27;88822;-55
2023/07/15 10:33:38;;;;;;;0.73;0.40;;;;;;;;;;5040698;27;87615;-55
2023/07/15 10:36:06;;;;;;;0.77;0.60;;;;;;;;;;5040268;27;87561;-55
2023/07/15 10:38:35;;;;;;;0.73;0.70;;;;;;;;;;5040169;28;89153;-55
2023/07/15 10:41:05;;;;;;;0.27;0.27;;;;;;;;;;5046435;27;88863;-56
2023/07/15 10:43:40;;;;;;;0.30;0.30;;;;;;;;;;5060809;27;87611;-55
2023/07/15 10:46:09;;;;;;;0.50;0.47;;;;;;;;;;5060713;27;89793;-55
2023/07/15 10:48:37;;;;;;;0.60;0.60;;;;;;;;;;5060256;27;88066;-55
2023/07/15 10:51:06;;;;;;;0.40;0.40;;;;;;;;;;5059609;27;87555;-56
2023/07/15 10:53:35;;;;;;;0.60;0.60;;;;;;;;;;5060091;27;88067;-55
2023/07/15 10:56:05;;;;;;;0.87;0.40;;;;;;;;;;5060476;27;89719;-55
2023/07/15 10:58:34;;;;;;;0.60;0.33;;;;;;;;;;5051698;27;87562;-55
2023/07/15 11:01:03;;;;;;;0.87;0.80;;;;;;;;;;5039231;28;88174;-55
2023/07/15 11:03:32;;;;;;;0.97;0.83;;;;;;;;;;5037421;27;87640;-55
2023/07/15 11:06:01;;;;;;;1.10;1.00;;;;;;;;;;5036951;28;88598;-55
2023/07/15 11:08:30;;;;;;;2.47;1.20;;;;;;;;;;5039597;27;88198;-55
2023/07/15 11:10:58;;;;;;;1.50;1.03;;;;;;;;;;5039178;27;88922;-56
2023/07/15 11:13:28;;;;;;;1.43;0.93;;;;;;;;;;5041807;27;87723;-54
2023/07/15 11:15:57;;;;;;;1.40;1.30;;;;;;;;;;5040266;27;88794;-55
2023/07/15 11:18:26;;;;;;;1.60;1.47;;;;;;;;;;5046315;27;89089;-55
2023/07/15 11:20:55;;;;;;;2.47;1.30;;;;;;;;;;5039671;27;89864;-55
2023/07/15 11:23:23;;;;;;;1.30;1.17;;;;;;;;;;5037521;27;88537;-55
2023/07/15 11:25:52;;;;;;;1.60;1.10;;;;;;;;;;5036948;27;89572;-55
2023/07/15 11:28:20;;;;;;;1.47;1.17;;;;;;;;;;5037269;28;89892;-56
2023/07/15 11:30:50;;;;;;;1.30;0.83;;;;;;;;;;5032933;27;89695;-55
2023/07/15 11:33:18;;;;;;;1.73;1.37;;;;;;;;;;5026872;28;87939;-55
2023/07/15 11:35:47;;;;;;;2.37;1.20;;;;;;;;;;5019030;28;88508;-55
2023/07/15 11:38:16;;;;;;;1.17;0.97;;;;;;;;;;5019176;28;89509;-54
2023/07/15 11:40:53;;;;;;;3.40;1.23;;;;;;;;;;5019337;28;87605;-55
2023/07/15 11:43:22;;;;;;;4.20;1.17;;;;;;;;;;5018650;28;88012;-55
2023/07/15 11:45:54;;;;;;;2.53;0.93;;;;;;;;;;5019223;28;89825;-56
2023/07/15 11:48:23;;;;;;;1.60;1.10;;;;;;;;;;5019299;28;89139;-56
2023/07/15 11:50:51;;;;;;;2.70;1.20;;;;;;;;;;5018449;28;87735;-56
2023/07/15 11:53:26;;;;;;;3.40;1.70;;;;;;;;;;5019624;28;87751;-55
2023/07/15 11:55:54;;;;;;;2.73;1.37;;;;;;;;;;5019549;28;88780;-56
2023/07/15 11:58:39;;;;;;;9.23;2.27;;;;;;;;;;5018994;28;87499;-56
2023/07/15 12:01:10;;;;;;;2.13;1.30;;;;;;;;;;5025612;27;87888;-55
2023/07/15 12:03:39;;;;;;;2.27;1.40;;;;;;;;;;5038919;27;87527;-54
2023/07/15 12:06:13;;;;;;;4.80;1.70;;;;;;;;;;5038611;27;89658;-56
2023/07/15 12:08:42;;;;;;;2.43;1.20;;;;;;;;;;5038455;27;90118;-56
2023/07/15 12:11:17;;;;;;;3.50;1.60;;;;;;;;;;5038943;27;88854;-55
2023/07/15 12:13:45;;;;;;;4.10;1.40;;;;;;;;;;5038604;27;87678;-55
2023/07/15 12:16:15;;;;;;;4.87;1.27;;;;;;;;;;5038794;27;89152;-56
2023/07/15 12:18:44;;;;;;;3.27;1.40;;;;;;;;;;5038570;27;89328;-56
2023/07/15 12:21:12;;;;;;;3.03;1.50;;;;;;;;;;5038787;27;88940;-55
2023/07/15 12:23:43;;;;;;;3.63;1.40;;;;;;;;;;5038719;27;87646;-55
2023/07/15 12:26:11;;;;;;;1.57;1.10;;;;;;;;;;5038788;28;89865;-54
2023/07/15 12:28:40;;;;;;;3.03;1.30;;;;;;;;;;5038585;27;89117;-54
2023/07/15 12:31:09;;;;;;;6.43;1.43;;;;;;;;;;5038475;27;88887;-54
2023/07/15 12:33:39;;;;;;;3.23;1.57;;;;;;;;;;5038123;27;87993;-55
2023/07/15 12:36:08;;;;;;;3.97;1.40;;;;;;;;;;5038109;27;88911;-55
2023/07/15 12:38:36;;;;;;;5.53;1.50;;;;;;;;;;5038229;28;89147;-55
2023/07/15 12:41:05;;;;;;;4.13;1.47;;;;;;;;;;5038420;27;88827;-55
2023/07/15 12:43:34;;;;;;;2.33;1.37;;;;;;;;;;5038358;27;87369;-55
2023/07/15 12:46:02;;;;;;;4.90;1.27;;;;;;;;;;5038414;27;88607;-56
2023/07/15 12:48:30;;;;;;;4.47;1.73;;;;;;;;;;5037715;27;88042;-56
2023/07/15 12:51:00;;;;;;;4.50;1.93;;;;;;;;;;5037775;27;89002;-55
2023/07/15 12:53:30;;;;;;;4.53;1.70;;;;;;;;;;5038949;28;87489;-55
2023/07/15 12:55:58;;;;;;;3.03;1.80;;;;;;;;;;5038379;27;88451;-56
2023/07/15 12:58:27;;;;;;;2.70;1.60;;;;;;;;;;5037708;28;90048;-55
2023/07/15 13:00:57;;;;;;;3.77;1.73;;;;;;;;;;5038224;27;89920;-55
2023/07/15 13:03:25;;;;;;;5.63;1.80;;;;;;;;;;5038147;27;87263;-55
2023/07/15 13:05:54;;;;;;;3.40;1.47;;;;;;;;;;5038009;27;88515;-55
2023/07/15 13:08:24;;;;;;;1.80;1.37;;;;;;;;;;5038280;27;89086;-58
2023/07/15 13:10:53;;;;;;;1.83;1.30;;;;;;;;;;5038239;27;87771;-55
2023/07/15 13:13:23;;;;;;;1.93;1.40;;;;;;;;;;5038186;27;87386;-55
2023/07/15 13:15:51;;;;;;;1.80;1.40;;;;;;;;;;5038548;27;89909;-55
2023/07/15 13:18:20;;;;;;;2.70;1.50;;;;;;;;;;5037261;27;88974;-56
2023/07/15 13:20:48;;;;;;;1.37;0.90;;;;;;;;;;5037761;27;87503;-55
2023/07/15 13:23:17;;;;;;;3.03;1.57;;;;;;;;;;5037756;27;88143;-55
2023/07/15 13:25:47;;;;;;;3.60;1.37;;;;;;;;;;5037564;27;88553;-55
2023/07/15 13:28:15;;;;;;;2.33;1.30;;;;;;;;;;5037634;27;89086;-56
2023/07/15 13:30:47;;;;;;;1.90;1.20;;;;;;;;;;5037773;27;88637;-55
2023/07/15 13:33:15;;;;;;;2.77;1.17;;;;;;;;;;5037750;27;87651;-55
2023/07/15 13:35:43;;;;;;;2.00;0.90;;;;;;;;;;5037655;27;87749;-56
2023/07/15 13:38:12;;;;;;;3.10;1.47;;;;;;;;;;5038016;27;88278;-56
2023/07/15 13:40:40;;;;;;;2.10;1.30;;;;;;;;;;5037811;27;88071;-54
2023/07/15 13:43:10;;;;;;;1.53;1.00;;;;;;;;;;5037692;27;87643;-56
2023/07/15 13:45:38;;;;;;;1.97;1.30;;;;;;;;;;5037735;27;88677;-55
2023/07/15 13:48:07;;;;;;;2.30;1.00;;;;;;;;;;5036578;27;89000;-56
2023/07/15 13:50:35;;;;;;;2.07;1.00;;;;;;;;;;5037045;27;89195;-55
2023/07/15 13:53:03;;;;;;;2.10;0.90;;;;;;;;;;5037817;27;87704;-55
2023/07/15 13:55:32;;;;;;;1.43;0.80;;;;;;;;;;5037637;27;88544;-55
2023/07/15 13:58:00;;;;;;;0.97;0.83;;;;;;;;;;5037307;27;89188;-56
2023/07/15 14:00:30;;;;;;;0.60;0.60;;;;;;;;;;5036973;27;87922;-56
2023/07/15 14:02:58;;;;;;;1.60;1.20;;;;;;;;;;5037951;27;87666;-56
2023/07/15 14:05:27;;;;;;;2.17;0.90;;;;;;;;;;5037608;27;88606;-55
2023/07/15 14:07:55;;;;;;;0.73;0.73;;;;;;;;;;5037612;27;88128;-56
2023/07/15 14:10:23;;;;;;;1.60;0.60;;;;;;;;;;5036926;27;88920;-55
2023/07/15 14:12:52;;;;;;;0.80;0.73;;;;;;;;;;5036810;27;87871;-54
2023/07/15 14:15:20;;;;;;;1.73;0.77;;;;;;;;;;5036971;27;89616;-56
2023/07/15 14:17:50;;;;;;;3.93;1.13;;;;;;;;;;5037121;27;88853;-55
2023/07/15 14:20:18;;;;;;;1.03;0.90;;;;;;;;;;5036827;27;88861;-55
2023/07/15 14:22:47;;;;;;;1.90;1.00;;;;;;;;;;5037417;27;87632;-56
2023/07/15 14:25:18;;;;;;;2.60;1.17;;;;;;;;;;5038203;27;87573;-55
2023/07/15 14:27:46;;;;;;;4.27;1.40;;;;;;;;;;5040708;27;88057;-55
2023/07/15 14:30:15;;;;;;;2.23;1.10;;;;;;;;;;5040292;27;87851;-54
2023/07/15 14:32:43;;;;;;;2.10;1.13;;;;;;;;;;5040953;27;87380;-56
2023/07/15 14:35:13;;;;;;;3.03;1.33;;;;;;;;;;5040669;27;89408;-55
2023/07/15 14:37:41;;;;;;;1.77;1.30;;;;;;;;;;5039477;27;89170;-54
2023/07/15 14:40:10;;;;;;;2.90;1.10;;;;;;;;;;5040254;27;87536;-56
2023/07/15 14:42:39;;;;;;;4.10;1.50;;;;;;;;;;5040309;27;87724;-55
2023/07/15 14:45:07;;;;;;;1.70;1.30;;;;;;;;;;5040091;27;89768;-56
2023/07/15 14:47:36;;;;;;;3.53;1.17;;;;;;;;;;5039954;27;88008;-54
2023/07/15 14:50:05;;;;;;;3.00;1.30;;;;;;;;;;5039876;27;88999;-56
2023/07/15 14:52:35;;;;;;;1.50;1.20;;;;;;;;;;5040934;27;88086;-54
2023/07/15 14:55:04;;;;;;;1.60;0.97;;;;;;;;;;5040257;27;88562;-56